TimeEDT,TemperatureF,Dew PointF,Humidity,Sea Level PressureIn,VisibilityMPH,Wind Direction,Wind SpeedMPH,Gust SpeedMPH,PrecipitationIn,Events,Conditions,WindDirDegrees,DateUTC
12:55 AM,57.0,41.0,55,30.04,10.0,West,11.5,-,N/A,,Clear,280,2012-10-05 04:55:00
1:55 AM,55.0,39.9,57,30.04,10.0,WNW,11.5,-,N/A,,Clear,290,2012-10-05 05:55:00
2:55 AM,53.1,37.9,57,30.04,10.0,WNW,17.3,23.0,N/A,,Clear,290,2012-10-05 06:55:00
3:55 AM,51.1,37.9,61,30.06,10.0,WNW,15.0,23.0,N/A,,Clear,290,2012-10-05 07:55:00
4:55 AM,50.0,39.0,66,30.07,10.0,WNW,13.8,-,N/A,,Partly Cloudy,290,2012-10-05 08:55:00
5:55 AM,48.9,37.9,66,30.08,10.0,WNW,11.5,-,N/A,,Scattered Clouds,290,2012-10-05 09:55:00
6:55 AM,48.9,37.0,64,30.07,10.0,West,15.0,-,N/A,,Partly Cloudy,280,2012-10-05 10:55:00
7:20 AM,48.2,37.4,66,30.07,10.0,West,15.0,20.7,N/A,,Mostly Cloudy,280,2012-10-05 11:20:00
7:50 AM,48.2,35.6,62,30.06,10.0,West,15.0,20.7,N/A,,Scattered Clouds,280,2012-10-05 11:50:00
7:55 AM,48.0,37.0,66,30.07,10.0,West,13.8,20.7,N/A,,Scattered Clouds,280,2012-10-05 11:55:00
8:55 AM,48.9,36.0,61,30.07,10.0,West,12.7,18.4,N/A,,Partly Cloudy,280,2012-10-05 12:55:00
9:55 AM,51.1,37.0,59,30.08,10.0,West,15.0,20.7,N/A,,Scattered Clouds,270,2012-10-05 13:55:00
10:55 AM,51.1,37.0,59,30.08,10.0,West,18.4,24.2,N/A,,Partly Cloudy,270,2012-10-05 14:55:00
11:47 AM,51.8,37.4,58,30.07,10.0,WNW,11.5,-,N/A,,Mostly Cloudy,290,2012-10-05 15:47:00
11:55 AM,52.0,37.9,59,30.07,10.0,WNW,12.7,18.4,N/A,,Mostly Cloudy,290,2012-10-05 15:55:00
12:55 PM,54.0,37.9,55,30.07,10.0,WSW,13.8,19.6,N/A,,Mostly Cloudy,240,2012-10-05 16:55:00
1:55 PM,53.1,37.9,57,30.06,10.0,WSW,12.7,19.6,N/A,,Overcast,250,2012-10-05 17:55:00
2:55 PM,53.1,37.9,57,30.04,10.0,West,11.5,-,N/A,,Overcast,260,2012-10-05 18:55:00
3:02 PM,51.8,37.4,58,30.03,10.0,WSW,10.4,-,N/A,,Partly Cloudy,240,2012-10-05 19:02:00
3:55 PM,51.1,37.9,61,30.02,10.0,WSW,10.4,-,N/A,,Overcast,240,2012-10-05 19:55:00
4:55 PM,53.1,36.0,52,30.01,10.0,SW,16.1,20.7,N/A,,Mostly Cloudy,230,2012-10-05 20:55:00
5:55 PM,52.0,34.0,50,29.99,10.0,WSW,8.1,-,N/A,,Mostly Cloudy,250,2012-10-05 21:55:00
6:55 PM,52.0,33.1,49,29.99,10.0,West,6.9,17.3,N/A,,Mostly Cloudy,260,2012-10-05 22:55:00
7:55 PM,52.0,30.9,45,29.99,10.0,West,12.7,20.7,N/A,,Scattered Clouds,280,2012-10-05 23:55:00
8:55 PM,52.0,30.9,45,29.99,10.0,West,13.8,19.6,N/A,,Partly Cloudy,280,2012-10-06 00:55:00
9:55 PM,51.1,30.9,46,29.99,10.0,WNW,11.5,21.9,N/A,,Scattered Clouds,290,2012-10-06 01:55:00
10:55 PM,50.0,30.9,48,29.98,10.0,WNW,17.3,24.2,N/A,,Mostly Cloudy,300,2012-10-06 02:55:00
11:55 PM,50.0,30.0,46,29.98,10.0,WNW,16.1,23.0,N/A,,Mostly Cloudy,300,2012-10-06 03:55:00